Time;durP1;ratioP1;P1;durP2;ratioP2;P2;SDS_P1;SDS_P2;PMS_P1;PMS_P2;Temp;Humidity;BMP_temperature;BMP_pressure;BME280_temperature;BME280_humidity;BME280_pressure;Samples;Min_cycle;Max_cycle;Signal;HPM_P1;HPM_P2
2022/05/17 00:00:32;;;;;;;10.57;7.03;;;;;;;12.19;72.01;97883.97;10332845;28;20592;-58
2022/05/17 00:05:30;;;;;;;11.02;7.20;;;;;;;12.17;72.04;97878.75;10329450;28;20063;-57
2022/05/17 00:10:30;;;;;;;11.63;7.88;;;;;;;12.15;71.99;97864.88;10331860;28;20038;-58
2022/05/17 00:15:29;;;;;;;10.23;7.00;;;;;;;12.08;72.17;97864.03;10330554;28;20077;-57
2022/05/17 00:20:28;;;;;;;11.32;8.10;;;;;;;12.00;72.51;97867.59;10331843;28;20492;-57
2022/05/17 00:25:28;;;;;;;13.25;8.20;;;;;;;11.93;73.33;97871.09;10331221;28;20064;-57
2022/05/17 00:30:27;;;;;;;11.25;8.20;;;;;;;11.77;74.62;97865.94;10331425;28;20085;-57
2022/05/17 00:35:26;;;;;;;12.68;8.68;;;;;;;11.75;74.49;97874.63;10329925;28;20504;-58
2022/05/17 00:40:25;;;;;;;12.10;8.52;;;;;;;11.67;73.88;97857.31;10331398;28;20072;-57
2022/05/17 00:45:25;;;;;;;13.20;9.70;;;;;;;11.64;74.27;97856.44;10326841;28;20063;-57
2022/05/17 00:50:29;;;;;;;;;;;;;;;11.57;74.06;97847.84;10331650;28;20079;-57
2022/05/17 00:55:28;;;;;;;9.20;5.70;;;;;;;11.43;74.33;97859.97;10330717;28;19978;-57
2022/05/17 01:00:30;;;;;;;10.45;6.78;;;;;;;11.35;74.12;97856.56;10331245;28;20077;-57
2022/05/17 01:05:34;;;;;;;10.65;7.53;;;;;;;11.28;74.47;97862.63;10329092;28;20080;-57
2022/05/17 01:10:33;;;;;;;11.82;7.90;;;;;;;11.21;74.25;97852.25;10336593;28;20532;-58
2022/05/17 01:15:34;;;;;;;13.50;8.40;;;;;;;11.03;75.17;97834.97;10336374;28;20065;-58
2022/05/17 01:20:34;;;;;;;15.05;8.82;;;;;;;11.07;75.70;97847.94;10337035;28;20516;-58
2022/05/17 01:25:34;;;;;;;14.60;9.52;;;;;;;11.02;75.03;97850.56;10335610;28;20065;-58
2022/05/17 01:30:33;;;;;;;12.50;8.27;;;;;;;10.83;76.37;97837.53;10332454;28;20714;-58
2022/05/17 01:35:32;;;;;;;14.63;8.45;;;;;;;10.83;76.86;97841.88;10336448;28;20700;-58
2022/05/17 01:40:31;;;;;;;15.20;9.18;;;;;;;10.79;77.40;97848.78;10337622;28;20045;-58
2022/05/17 01:45:30;;;;;;;14.32;8.18;;;;;;;10.80;77.28;97852.28;10335429;28;20060;-58
2022/05/17 01:50:30;;;;;;;14.18;8.38;;;;;;;10.68;77.53;97834.09;10336779;28;20145;-58
2022/05/17 01:55:29;;;;;;;14.38;9.38;;;;;;;10.72;77.75;97846.22;10335387;28;20049;-58
2022/05/17 02:00:29;;;;;;;14.25;9.02;;;;;;;10.69;77.78;97843.63;10336066;28;20080;-58
2022/05/17 02:05:28;;;;;;;;;;;;;;;10.66;78.14;97851.38;10334937;28;20528;-58
2022/05/17 02:10:27;;;;;;;13.07;8.82;;;;;;;10.67;78.35;97847.94;10332836;28;19924;-58
2022/05/17 02:15:26;;;;;;;13.45;8.45;;;;;;;10.68;78.38;97847.06;10333916;28;20057;-58
2022/05/17 02:20:25;;;;;;;12.10;8.43;;;;;;;10.71;78.09;97844.50;10335790;28;20068;-58
2022/05/17 02:25:24;;;;;;;13.82;8.90;;;;;;;10.69;78.62;97841.03;10335497;28;20059;-58
2022/05/17 02:30:24;;;;;;;12.25;8.63;;;;;;;10.66;78.70;97836.72;10335125;28;20252;-58
2022/05/17 02:35:23;;;;;;;16.77;9.07;;;;;;;10.56;79.22;97833.22;10333687;28;20084;-58
2022/05/17 02:40:22;;;;;;;13.98;8.60;;;;;;;10.56;78.78;97843.59;10335414;28;20071;-58
2022/05/17 02:45:21;;;;;;;14.15;8.85;;;;;;;10.57;78.92;97842.75;10333381;28;20113;-58
2022/05/17 02:50:20;;;;;;;14.00;9.20;;;;;;;10.58;78.59;97847.06;10333377;28;20091;-58
2022/05/17 02:55:19;;;;;;;11.80;8.75;;;;;;;10.45;78.67;97815.91;10329991;28;20489;-58
2022/05/17 03:00:19;;;;;;;13.50;9.55;;;;;;;10.55;79.46;97847.06;10334439;28;20125;-58
2022/05/17 03:05:17;;;;;;;;;;;;;;;10.54;79.38;97845.34;10332529;28;20539;-58
2022/05/17 03:10:17;;;;;;;15.30;8.52;;;;;;;10.54;79.53;97842.75;10333562;28;20484;-58
2022/05/17 03:15:23;;;;;;;17.15;9.13;;;;;;;10.56;78.75;97840.13;10333281;28;20085;-58
2022/05/17 03:20:22;;;;;;;16.27;10.05;;;;;;;10.58;79.34;97843.59;10333105;28;20071;-58
2022/05/17 03:25:23;;;;;;;16.55;9.98;;;;;;;10.46;80.11;97836.69;10326167;28;20049;-58
2022/05/17 03:30:22;;;;;;;15.88;9.40;;;;;;;10.41;79.67;97836.69;10332921;28;20104;-58
2022/05/17 03:35:21;;;;;;;20.05;9.73;;;;;;;10.48;79.57;97853.13;10334788;28;20152;-58
2022/05/17 03:40:20;;;;;;;17.38;11.43;;;;;;;10.31;79.15;97855.69;10332813;28;20069;-58
2022/05/17 03:45:20;;;;;;;16.25;10.32;;;;;;;10.24;78.99;97863.44;10331604;28;20061;-57
2022/05/17 03:50:18;;;;;;;20.73;13.80;;;;;;;10.12;79.51;97869.47;10333157;28;20103;-58
2022/05/17 03:55:17;;;;;;;23.05;16.23;;;;;;;10.10;80.21;97864.28;10331674;28;20037;-58
2022/05/17 04:00:17;;;;;;;26.98;17.00;;;;;;;10.10;79.95;97866.88;10333271;28;20033;-58
2022/05/17 04:05:17;;;;;;;21.88;14.55;;;;;;;10.05;80.38;97865.13;10330569;28;20057;-58
2022/05/17 04:10:17;;;;;;;21.13;12.77;;;;;;;9.84;81.08;97874.59;10332034;28;20057;-58
2022/05/17 04:15:19;;;;;;;21.50;13.15;;;;;;;9.85;81.35;97865.09;10329950;28;20080;-58
2022/05/17 04:20:18;;;;;;;21.83;12.48;;;;;;;10.11;81.27;97859.97;10326822;28;20500;-58
2022/05/17 04:25:21;;;;;;;20.83;12.27;;;;;;;10.33;80.72;97858.28;10327842;28;20073;-58
2022/05/17 04:30:20;;;;;;;18.67;11.52;;;;;;;10.43;80.49;97870.41;10331575;28;20867;-58
2022/05/17 04:35:19;;;;;;;22.67;12.90;;;;;;;10.56;81.26;97882.50;10347686;28;20057;-58
2022/05/17 04:40:19;;;;;;;22.05;12.55;;;;;;;10.86;80.56;97874.75;10356617;28;20073;-58
2022/05/17 04:45:18;;;;;;;23.13;13.25;;;;;;;11.14;80.07;97870.44;10337732;28;20061;-58
2022/05/17 04:50:18;;;;;;;22.42;13.48;;;;;;;11.40;79.57;97868.66;10311767;28;20125;-58
2022/05/17 04:55:19;;;;;;;22.10;13.63;;;;;;;11.64;79.24;97851.25;10257372;28;20070;-58
2022/05/17 05:00:21;;;;;;;21.52;12.80;;;;;;;11.97;78.58;97849.38;10257994;28;20132;-58
2022/05/17 05:05:22;;;;;;;21.92;14.77;;;;;;;12.24;77.36;97845.75;10254954;28;20061;-58
2022/05/17 05:10:22;;;;;;;23.52;16.58;;;;;;;12.32;76.41;97830.97;10251722;28;20074;-58
2022/05/17 05:15:20;;;;;;;21.77;16.65;;;;;;;12.56;75.99;97839.53;10255074;28;20058;-58
2022/05/17 05:20:19;;;;;;;24.75;16.45;;;;;;;12.80;75.91;97846.25;10252866;28;20121;-58
2022/05/17 05:25:18;;;;;;;24.00;16.55;;;;;;;12.94;75.80;97847.00;10256188;28;20034;-58
2022/05/17 05:30:19;;;;;;;20.65;14.98;;;;;;;13.10;74.89;97852.94;10249708;28;20054;-58
2022/05/17 05:35:20;;;;;;;19.55;13.35;;;;;;;13.38;74.83;97863.09;10257454;28;20077;-58
2022/05/17 05:40:20;;;;;;;20.13;13.50;;;;;;;13.62;74.37;97847.19;10254993;28;20446;-58
2022/05/17 05:45:20;;;;;;;17.75;12.35;;;;;;;13.96;73.48;97851.97;10253580;28;20058;-58
2022/05/17 05:50:19;;;;;;;18.80;12.18;;;;;;;14.27;72.45;97856.81;10232626;28;20061;-58
2022/05/17 05:55:21;;;;;;;16.30;12.18;;;;;;;14.58;72.16;97846.78;10231411;28;20062;-58
2022/05/17 06:00:21;;;;;;;15.60;10.48;;;;;;;14.91;69.97;97844.53;10253623;28;20066;-58
2022/05/17 06:05:22;;;;;;;15.80;10.40;;;;;;;15.17;68.80;97826.63;10250068;28;20061;-58
2022/05/17 06:10:22;;;;;;;14.75;10.25;;;;;;;15.55;66.66;97843.38;10252790;28;20062;-59
2022/05/17 06:15:21;;;;;;;11.60;9.35;;;;;;;15.75;66.03;97818.56;10256279;28;20136;-58
2022/05/17 06:20:20;;;;;;;;;;;;;;;16.18;65.06;97833.34;10253964;28;20140;-58
2022/05/17 06:25:19;;;;;;;14.10;9.75;;;;;;;16.50;64.39;97830.00;10230943;28;19921;-58
2022/05/17 06:30:18;;;;;;;;;;;;;;;16.76;61.70;97831.13;10252108;28;20693;-58
2022/05/17 06:35:18;;;;;;;9.50;7.87;;;;;;;16.96;59.62;97826.31;10252867;28;19957;-58
2022/05/17 06:40:17;;;;;;;10.95;8.60;;;;;;;17.25;59.78;97822.91;10247663;28;20066;-58
2022/05/17 06:45:15;;;;;;;;;;;;;;;17.59;58.96;97814.13;10250956;28;20030;-58
2022/05/17 06:50:14;;;;;;;10.77;8.10;;;;;;;17.81;58.51;97810.91;10242313;28;19918;-58
2022/05/17 06:55:14;;;;;;;;;;;;;;;18.07;58.03;97816.25;10249580;28;20502;-58
2022/05/17 07:00:13;;;;;;;10.25;7.80;;;;;;;18.25;56.37;97813.97;10253399;28;19957;-58
2022/05/17 07:05:13;;;;;;;11.80;7.88;;;;;;;18.57;56.26;97805.94;10241615;28;20085;-58
2022/05/17 07:15:30;;;;;;;10.00;7.50;;;;;;;19.11;54.86;97800.66;10247097;28;20125;-58
2022/05/17 07:20:29;;;;;;;10.38;7.30;;;;;;;19.23;53.69;97801.09;10248781;28;20018;-58
2022/05/17 07:25:28;;;;;;;11.82;7.38;;;;;;;19.41;53.22;97803.97;10247281;28;20081;-58
2022/05/17 07:30:28;;;;;;;10.32;6.82;;;;;;;19.73;52.49;97802.84;10241897;28;20042;-58
2022/05/17 07:35:27;;;;;;;9.10;6.60;;;;;;;20.02;52.24;97785.06;10248264;28;20476;-58
2022/05/17 07:40:26;;;;;;;13.50;7.60;;;;;;;20.31;51.75;97783.09;10247887;28;20532;-58
2022/05/17 07:45:25;;;;;;;9.90;6.72;;;;;;;20.55;50.54;97787.41;10248046;28;20073;-58
2022/05/17 07:50:24;;;;;;;8.38;7.07;;;;;;;20.64;50.37;97762.44;10248640;28;20077;-58
2022/05/17 07:55:23;;;;;;;10.82;7.82;;;;;;;21.03;51.03;97781.00;10243445;28;20057;-58
2022/05/17 08:00:23;;;;;;;10.07;7.68;;;;;;;21.21;49.27;97773.25;10259487;28;20525;-58
2022/05/17 08:05:22;;;;;;;10.80;7.65;;;;;;;21.39;49.88;97767.16;10244589;28;20050;-58
2022/05/17 08:10:21;;;;;;;9.70;7.43;;;;;;;21.70;50.10;97766.63;10237647;28;20054;-58
2022/05/17 08:15:23;;;;;;;11.02;7.20;;;;;;;21.99;47.86;97760.94;10250838;28;20084;-58
2022/05/17 08:20:22;;;;;;;8.85;6.80;;;;;;;22.14;47.17;97747.03;10256841;28;20105;-58
2022/05/17 08:30:39;;;;;;;9.85;6.75;;;;;;;22.64;45.23;97738.38;10258339;28;20081;-58
2022/05/17 08:35:45;;;;;;;11.43;6.30;;;;;;;22.98;43.97;97748.16;10257993;28;20066;-58
2022/05/17 08:41:00;;;;;;;7.25;5.32;;;;;;;23.28;42.32;97738.69;10258706;28;20919;-58
2022/05/17 08:46:10;;;;;;;6.43;3.50;;;;;;;23.40;35.93;97738.06;10240135;28;20054;-58
2022/05/17 08:51:14;;;;;;;5.28;4.13;;;;;;;23.76;36.47;97729.09;10258430;28;20108;-58
2022/05/17 08:56:16;;;;;;;5.47;3.08;;;;;;;23.82;34.33;97739.34;10254416;28;20118;-58
2022/05/17 09:01:28;;;;;;;5.93;3.50;;;;;;;24.15;34.62;97735.75;10257557;28;20074;-58
2022/05/17 09:06:49;;;;;;;4.68;3.75;;;;;;;24.31;34.73;97731.34;10251287;28;20070;-58
2022/05/17 09:12:13;;;;;;;8.75;3.92;;;;;;;24.32;35.47;97725.06;10252026;28;20121;-58
2022/05/17 09:17:15;;;;;;;6.25;4.40;;;;;;;24.57;35.49;97724.53;10232185;28;20065;-58
2022/05/17 09:22:14;;;;;;;7.97;4.43;;;;;;;24.76;35.52;97716.34;10259557;28;20061;-58
2022/05/17 09:27:38;;;;;;;4.88;3.63;;;;;;;24.89;35.57;97719.13;10256910;28;20031;-58
2022/05/17 09:32:44;;;;;;;6.22;4.20;;;;;;;24.99;35.88;97703.50;10238987;28;20096;-58
2022/05/17 09:37:46;;;;;;;5.70;4.13;;;;;;;25.12;34.94;97707.13;10255493;28;20070;-58
2022/05/17 09:42:53;;;;;;;10.88;4.75;;;;;;;25.13;35.46;97697.34;10256538;28;20084;-58
2022/05/17 09:48:00;;;;;;;6.28;4.20;;;;;;;25.20;34.20;97699.56;10255756;28;20078;-59
2022/05/17 09:53:06;;;;;;;5.50;3.92;;;;;;;25.19;34.07;97692.53;10253357;28;20678;-58
2022/05/17 09:58:29;;;;;;;5.60;4.00;;;;;;;25.53;34.25;97690.44;10270255;28;20070;-59
2022/05/17 10:03:36;;;;;;;5.93;4.03;;;;;;;25.81;34.50;97683.38;10255474;28;20069;-59
2022/05/17 10:08:43;;;;;;;5.43;3.90;;;;;;;25.76;32.74;97682.84;10238797;28;20076;-57
2022/05/17 10:13:45;;;;;;;6.90;3.70;;;;;;;25.96;32.99;97674.44;10255111;28;20058;-56
2022/05/17 10:18:52;;;;;;;5.72;3.63;;;;;;;26.06;33.58;97669.38;10254886;28;20058;-56
2022/05/17 10:24:35;;;;;;;4.55;3.45;;;;;;;26.02;33.14;97662.53;10254430;28;20066;-57
2022/05/17 10:29:49;;;;;;;8.65;4.10;;;;;;;25.87;33.15;97645.78;10246847;28;20073;-57
2022/05/17 10:34:51;;;;;;;6.57;4.45;;;;;;;26.09;33.67;97651.44;10244194;28;20070;-57
2022/05/17 10:40:06;;;;;;;5.40;3.50;;;;;;;26.12;32.43;97643.22;10252188;28;20487;-57
2022/05/17 10:45:10;;;;;;;4.70;3.40;;;;;;;26.47;33.80;97633.91;10245476;28;20095;-57
2022/05/17 10:50:35;;;;;;;5.30;3.38;;;;;;;26.62;31.89;97626.66;10252476;28;20078;-57
2022/05/17 10:55:55;;;;;;;7.85;3.50;;;;;;;26.80;32.13;97620.09;10246675;28;20137;-57
2022/05/17 11:01:02;;;;;;;5.53;3.67;;;;;;;26.94;31.98;97617.34;10247698;28;20065;-57
2022/05/17 11:06:25;;;;;;;5.03;3.40;;;;;;;26.89;30.99;97607.97;10242767;28;20105;-57
2022/05/17 11:11:49;;;;;;;9.02;3.60;;;;;;;27.06;30.49;97598.81;10248727;28;20124;-57
2022/05/17 11:16:59;;;;;;;4.57;3.60;;;;;;;26.88;30.03;97592.94;10225399;28;20064;-57
2022/05/17 11:22:12;;;;;;;6.35;3.63;;;;;;;26.84;30.73;97573.69;10250414;28;20066;-57
2022/05/17 11:27:39;;;;;;;7.78;3.65;;;;;;;27.06;29.86;97588.16;10246875;28;20049;-57
2022/05/17 11:32:42;;;;;;;6.07;3.78;;;;;;;27.28;29.92;97561.66;10242257;28;20856;-57
2022/05/17 11:37:41;;;;;;;6.75;3.70;;;;;;;27.53;29.81;97563.44;10247270;28;20133;-57
2022/05/17 11:48:42;;;;;;;5.28;3.80;;;;;;;27.69;28.97;97549.00;10252183;28;20534;-57
2022/05/17 11:53:47;;;;;;;5.72;3.40;;;;;;;27.67;29.05;97549.09;10251283;28;20069;-59
2022/05/17 11:58:50;;;;;;;4.30;3.45;;;;;;;27.38;28.13;97525.41;10249844;28;20089;-57
2022/05/17 12:04:01;;;;;;;5.88;3.70;;;;;;;27.52;27.76;97547.56;10248081;28;20077;-57
2022/05/17 12:09:24;;;;;;;5.22;3.92;;;;;;;27.50;28.52;97531.69;10241056;28;20489;-57
2022/05/17 12:14:32;;;;;;;6.03;3.53;;;;;;;28.04;28.88;97523.19;10228182;28;20148;-57
2022/05/17 12:19:45;;;;;;;5.90;3.70;;;;;;;27.99;27.82;97514.69;10243715;28;20122;-57
2022/05/17 12:25:04;;;;;;;5.45;3.08;;;;;;;28.17;27.76;97509.81;10263010;28;20054;-57
2022/05/17 12:35:38;;;;;;;4.53;3.63;;;;;;;28.98;27.79;97497.25;10248965;28;20066;-57
2022/05/17 12:46:10;;;;;;;7.32;3.50;;;;;;;28.19;27.75;97477.66;10249192;28;20058;-58
2022/05/17 12:51:10;;;;;;;7.32;3.75;;;;;;;27.98;28.47;97470.28;10239047;28;20077;-57
2022/05/17 12:56:18;;;;;;;5.68;3.45;;;;;;;28.20;28.48;97458.03;10248092;28;20062;-57
2022/05/17 13:01:27;;;;;;;5.75;3.50;;;;;;;28.50;27.94;97451.25;10248825;28;20465;-57
2022/05/17 13:06:45;;;;;;;5.97;3.55;;;;;;;28.78;28.42;97436.56;10253163;28;20458;-57
2022/05/17 13:11:44;;;;;;;7.47;3.70;;;;;;;29.27;28.03;97421.91;10263550;28;20064;-57
2022/05/17 13:16:45;;;;;;;6.30;4.00;;;;;;;29.61;26.85;97390.56;10250352;28;20038;-57
2022/05/17 13:21:51;;;;;;;4.88;3.72;;;;;;;29.96;26.87;97413.47;10254794;28;20073;-57
2022/05/17 13:26:52;;;;;;;6.18;3.53;;;;;;;29.52;26.20;97398.50;10256524;28;20717;-57
2022/05/17 13:32:04;;;;;;;4.03;3.13;;;;;;;29.25;26.97;97386.41;10256752;28;20089;-57
2022/05/17 13:37:13;;;;;;;6.78;3.53;;;;;;;29.08;27.80;97374.47;10254462;28;20073;-57
2022/05/17 13:42:17;;;;;;;5.47;3.72;;;;;;;28.87;27.91;97371.72;10254117;28;20093;-57
2022/05/17 13:47:22;;;;;;;8.50;3.30;;;;;;;29.00;27.25;97364.41;10253753;28;20070;-57
2022/05/17 13:52:34;;;;;;;4.70;3.45;;;;;;;28.71;27.85;97357.94;10256630;28;20521;-57
2022/05/17 13:57:37;;;;;;;6.50;3.38;;;;;;;28.62;27.88;97346.16;10253860;28;20089;-57
2022/05/17 14:02:52;;;;;;;8.02;3.70;;;;;;;28.84;28.54;97343.47;10255429;28;20070;-57
2022/05/17 14:07:57;;;;;;;7.40;3.25;;;;;;;28.44;28.70;97332.47;10255448;28;20073;-57
2022/05/17 14:13:25;;;;;;;5.80;3.45;;;;;;;28.70;28.33;97326.88;10252451;28;20124;-57
2022/05/17 14:18:31;;;;;;;4.47;3.33;;;;;;;28.97;28.18;97321.06;10246206;28;20121;-57
2022/05/17 14:23:32;;;;;;;4.82;3.40;;;;;;;28.75;28.34;97322.00;10252959;28;20100;-57
2022/05/17 14:28:32;;;;;;;4.25;3.45;;;;;;;28.86;28.20;97324.66;10254081;28;20756;-57
2022/05/17 14:33:31;;;;;;;4.47;3.15;;;;;;;29.13;28.00;97317.97;10254341;28;20093;-57
2022/05/17 14:38:30;;;;;;;5.28;3.60;;;;;;;29.01;27.96;97296.66;10255068;28;20036;-57
2022/05/17 14:43:29;;;;;;;4.53;3.75;;;;;;;29.04;28.08;97296.41;10252889;28;20095;-57
2022/05/17 14:48:28;;;;;;;5.75;3.70;;;;;;;28.56;28.14;97293.25;10253713;28;20041;-57
2022/05/17 14:53:27;;;;;;;5.40;3.92;;;;;;;28.65;27.94;97282.69;10256166;28;20127;-57
2022/05/17 14:58:26;;;;;;;6.65;3.75;;;;;;;28.59;28.08;97266.31;10243358;28;20383;-57
2022/05/17 15:03:34;;;;;;;6.65;3.60;;;;;;;28.67;28.43;97259.41;10228524;28;20031;-57
2022/05/17 15:08:35;;;;;;;4.68;3.50;;;;;;;28.72;28.41;97252.84;10254339;28;20489;-57
2022/05/17 15:13:35;;;;;;;5.65;3.65;;;;;;;28.66;28.88;97252.34;10256200;28;20076;-57
2022/05/17 15:18:40;;;;;;;8.25;3.95;;;;;;;28.69;28.49;97245.94;10252958;28;20074;-57
2022/05/17 15:23:42;;;;;;;5.55;3.75;;;;;;;28.57;28.51;97231.75;10254234;28;20082;-57
2022/05/17 15:28:44;;;;;;;5.13;4.10;;;;;;;28.58;28.78;97236.09;10251985;28;20496;-57
2022/05/17 15:33:44;;;;;;;5.75;3.78;;;;;;;28.55;28.50;97227.47;10249694;28;20082;-57
2022/05/17 15:38:43;;;;;;;6.63;3.80;;;;;;;28.39;29.57;97230.59;10233781;28;20125;-57
2022/05/17 15:43:42;;;;;;;5.93;3.78;;;;;;;28.13;29.53;97233.56;10249667;28;20034;-57
2022/05/17 15:53:59;;;;;;;6.30;3.70;;;;;;;27.96;29.74;97236.69;10250706;28;20057;-57
2022/05/17 15:58:58;;;;;;;6.35;4.05;;;;;;;27.88;29.60;97223.97;10242426;28;20027;-57
2022/05/17 16:09:21;;;;;;;7.82;3.55;;;;;;;27.77;31.90;97227.47;10243244;28;20066;-57
2022/05/17 16:14:23;;;;;;;8.13;5.07;;;;;;;27.62;31.86;97239.38;10248883;28;20180;-57
2022/05/17 16:19:27;;;;;;;6.90;5.05;;;;;;;27.37;32.61;97230.59;10234287;28;20066;-57
2022/05/17 16:24:27;;;;;;;7.05;4.47;;;;;;;27.04;32.65;97233.19;10235014;28;20065;-57
2022/05/17 16:29:26;;;;;;;5.25;3.90;;;;;;;26.73;33.27;97236.31;10248253;28;20069;-58
2022/05/17 16:34:28;;;;;;;11.52;4.90;;;;;;;26.60;33.93;97240.00;10251182;28;20030;-57
2022/05/17 16:39:28;;;;;;;8.48;4.60;;;;;;;26.50;34.09;97235.38;10247991;28;20474;-57
2022/05/17 16:44:27;;;;;;;6.38;4.40;;;;;;;26.44;34.40;97238.50;10258836;28;20058;-57
2022/05/17 16:49:27;;;;;;;6.03;4.35;;;;;;;26.26;34.75;97231.88;10255215;28;20062;-57
2022/05/17 16:54:27;;;;;;;12.13;5.57;;;;;;;26.14;36.24;97242.41;10255829;28;20132;-57
2022/05/17 16:59:26;;;;;;;7.93;4.88;;;;;;;26.05;36.89;97235.09;10251302;28;20096;-57
2022/05/17 17:04:26;;;;;;;7.80;5.32;;;;;;;26.00;38.26;97239.91;10255147;28;20097;-57
2022/05/17 17:09:26;;;;;;;10.77;6.47;;;;;;;25.86;38.93;97250.66;10256250;28;20065;-57
2022/05/17 17:14:24;;;;;;;9.23;6.88;;;;;;;25.66;39.57;97252.06;10255329;28;20070;-57
2022/05/17 17:19:23;;;;;;;11.35;6.72;;;;;;;25.39;40.60;97245.03;10229321;28;20033;-57
2022/05/17 17:24:22;;;;;;;10.57;5.57;;;;;;;25.05;41.40;97226.09;10255733;28;20483;-57
2022/05/17 17:29:21;;;;;;;14.80;7.35;;;;;;;24.79;41.68;97241.09;10271891;28;20427;-57
2022/05/17 17:39:55;;;;;;;10.20;6.30;;;;;;;24.09;42.89;97222.66;10227680;28;20121;-57
2022/05/17 17:44:56;;;;;;;7.97;5.85;;;;;;;23.73;43.48;97228.53;10271402;28;20053;-57
2022/05/17 17:49:54;;;;;;;12.52;5.82;;;;;;;23.41;44.33;97236.63;10270100;28;20072;-57
2022/05/17 17:54:54;;;;;;;9.48;5.88;;;;;;;23.05;45.18;97227.31;10269665;28;20129;-57
2022/05/17 17:59:53;;;;;;;7.97;5.40;;;;;;;22.72;46.13;97228.34;10270603;28;20057;-57
2022/05/17 18:04:53;;;;;;;6.88;5.10;;;;;;;22.44;46.90;97237.00;10271947;28;20166;-57
2022/05/17 18:09:52;;;;;;;8.82;5.78;;;;;;;22.16;47.57;97257.06;10243384;28;20068;-57
2022/05/17 18:14:54;;;;;;;11.23;5.85;;;;;;;21.92;48.46;97256.63;10237410;28;20019;-57
2022/05/17 18:19:53;;;;;;;10.85;6.63;;;;;;;21.62;49.02;97261.75;10240179;28;20050;-57
2022/05/17 18:24:52;;;;;;;13.02;6.43;;;;;;;21.41;49.06;97253.19;10242647;28;20062;-57
2022/05/17 18:29:51;;;;;;;7.13;5.55;;;;;;;21.19;49.45;97245.50;10239739;28;20121;-58
2022/05/17 18:34:50;;;;;;;9.88;5.45;;;;;;;21.10;49.56;97254.75;10241502;28;20054;-58
2022/05/17 18:39:51;;;;;;;9.00;5.47;;;;;;;20.93;50.02;97268.78;10242842;28;20038;-58
2022/05/17 18:44:54;;;;;;;9.60;5.55;;;;;;;20.76;50.78;97278.50;10239101;28;20442;-58
2022/05/17 18:49:55;;;;;;;7.65;6.22;;;;;;;20.54;51.18;97270.78;10258366;28;20074;-58
2022/05/17 18:54:54;;;;;;;8.50;5.47;;;;;;;20.38;51.72;97282.03;10236174;28;20114;-58
2022/05/17 18:59:55;;;;;;;8.70;5.90;;;;;;;20.33;51.90;97297.22;10253105;28;20080;-58
2022/05/17 19:04:54;;;;;;;9.38;6.15;;;;;;;20.24;52.69;97298.50;10250696;28;20085;-58
2022/05/17 19:15:10;;;;;;;10.02;6.50;;;;;;;20.02;53.18;97310.97;10247749;28;20069;-58
2022/05/17 19:20:10;;;;;;;9.95;6.28;;;;;;;19.96;53.40;97296.31;10233566;28;20121;-58
2022/05/17 19:25:09;;;;;;;11.50;7.28;;;;;;;19.90;54.36;97290.47;10251925;28;20468;-58
2022/05/17 19:30:09;;;;;;;10.50;6.00;;;;;;;19.70;54.94;97267.66;10253886;28;20089;-58
2022/05/17 19:35:17;;;;;;;7.90;5.60;;;;;;;19.44;55.18;97249.47;10253594;28;20069;-58
2022/05/17 19:40:18;;;;;;;11.50;6.63;;;;;;;19.56;55.63;97281.47;10243925;28;20077;-58
2022/05/17 19:45:18;;;;;;;10.73;7.20;;;;;;;19.46;57.46;97275.72;10246565;28;20077;-58
2022/05/17 19:50:19;;;;;;;9.23;6.85;;;;;;;19.36;57.89;97283.16;10249257;28;20046;-58
2022/05/17 19:55:18;;;;;;;14.95;9.25;;;;;;;19.34;59.26;97282.38;10238191;28;20081;-58
2022/05/17 20:00:20;;;;;;;22.40;12.65;;;;;;;19.24;59.47;97304.75;10243585;28;20086;-58
2022/05/17 20:05:21;;;;;;;14.60;8.77;;;;;;;18.63;63.46;97354.59;10248415;28;20066;-58
2022/05/17 20:10:21;;;;;;;11.18;7.60;;;;;;;18.06;65.23;97376.00;10237255;28;20050;-58
2022/05/17 20:15:22;;;;;;;9.20;6.78;;;;;;;18.21;64.03;97387.69;10231062;28;20494;-58
2022/05/17 20:20:31;;;;;;;10.02;7.30;;;;;;;18.14;64.84;97397.56;10252353;28;20092;-58
2022/05/17 20:25:31;;;;;;;12.05;7.22;;;;;;;18.00;67.07;97414.75;10237046;28;20077;-58
2022/05/17 20:30:29;;;;;;;15.05;8.88;;;;;;;17.97;70.47;97426.22;10250958;28;20081;-58
2022/05/17 20:35:29;;;;;;;11.98;8.18;;;;;;;17.90;70.66;97441.34;10249873;28;20027;-58
2022/05/17 20:40:28;;;;;;;14.10;7.13;;;;;;;17.90;69.60;97440.50;10234471;28;20147;-58
2022/05/17 20:45:27;;;;;;;10.00;6.25;;;;;;;18.04;69.29;97443.47;10250710;28;20058;-58
2022/05/17 20:50:27;;;;;;;8.55;6.20;;;;;;;18.17;68.54;97460.50;10238791;28;20801;-58
2022/05/17 20:55:28;;;;;;;8.07;6.25;;;;;;;18.28;68.15;97470.59;10245264;28;20117;-58
2022/05/17 21:00:28;;;;;;;8.50;6.20;;;;;;;18.38;68.21;97471.13;10249469;28;20085;-58
2022/05/17 21:05:27;;;;;;;8.18;6.45;;;;;;;18.50;68.36;97482.94;10248892;28;20062;-58
2022/05/17 21:10:26;;;;;;;12.18;6.00;;;;;;;18.53;67.81;97491.59;10249994;28;20073;-58
2022/05/17 21:15:28;;;;;;;11.55;5.90;;;;;;;18.61;66.73;97492.16;10245660;28;20030;-58
2022/05/17 21:20:27;;;;;;;7.70;5.10;;;;;;;18.63;65.92;97510.50;10250353;28;20081;-58
2022/05/17 21:25:26;;;;;;;8.45;5.20;;;;;;;18.77;65.56;97538.94;10247959;28;20085;-58
2022/05/17 21:30:26;;;;;;;11.07;5.82;;;;;;;18.91;65.56;97559.44;10243680;28;20073;-56
2022/05/17 21:35:26;;;;;;;22.35;9.23;;;;;;;17.86;82.69;97591.13;10250420;28;20058;-61
2022/05/17 21:40:25;;;;;;;17.67;11.20;;;;;;;16.39;92.87;97602.41;10241341;28;20494;-59
2022/05/17 21:45:24;;;;;;;;;;;;;;;15.87;96.93;97625.53;10251603;28;20019;-58
2022/05/17 21:50:27;;;;;;;20.30;12.68;;;;;;;15.79;96.86;97631.88;10256829;28;19932;-59
2022/05/17 21:55:29;;;;;;;25.55;13.57;;;;;;;15.65;99.29;97635.63;10239122;28;20062;-59
2022/05/17 22:00:37;;;;;;;19.95;14.27;;;;;;;15.57;100.00;97636.69;10255135;28;20063;-59
2022/05/17 22:05:36;;;;;;;22.02;15.07;;;;;;;15.58;100.00;97644.50;10252012;28;20061;-59
2022/05/17 22:15:56;;;;;;;18.45;15.25;;;;;;;15.70;100.00;97651.22;10253049;28;20118;-58
2022/05/17 22:20:55;;;;;;;;;;;;;;;15.73;100.00;97642.44;10241253;28;20046;-59
2022/05/17 22:25:53;;;;;;;22.35;15.07;;;;;;;15.68;100.00;97630.31;10238717;28;19996;-59
2022/05/17 22:30:52;;;;;;;;;;;;;;;15.66;100.00;97616.41;10258461;28;20117;-58
2022/05/17 22:35:51;;;;;;;22.73;15.50;;;;;;;15.62;100.00;97599.09;10252447;28;19933;-58
2022/05/17 22:40:52;;;;;;;;;;;;;;;15.68;100.00;97609.38;10257491;28;20069;-57
2022/05/17 22:51:10;;;;;;;26.13;16.58;;;;;;;15.24;100.00;97592.09;10250591;28;20073;-58
2022/05/17 22:56:09;;;;;;;23.73;15.82;;;;;;;15.19;100.00;97593.97;10256451;28;20451;-58
2022/05/17 23:01:08;;;;;;;21.30;15.00;;;;;;;15.04;100.00;97584.72;10251498;28;20140;-58
2022/05/17 23:06:07;;;;;;;;;;;;;;;14.78;100.00;97585.25;10241447;28;20019;-58
2022/05/17 23:11:12;;;;;;;21.20;15.57;;;;;;;14.70;100.00;97580.19;10256017;28;20381;-58
2022/05/17 23:16:12;;;;;;;17.75;13.55;;;;;;;14.53;100.00;97572.66;10246379;28;20085;-59
2022/05/17 23:21:11;;;;;;;17.33;12.70;;;;;;;14.60;100.00;97586.47;10255770;28;20470;-58
2022/05/17 23:31:28;;;;;;;15.43;10.70;;;;;;;14.47;100.00;97588.44;10248028;28;20598;-59
2022/05/17 23:36:28;;;;;;;15.95;11.45;;;;;;;14.58;100.00;97577.78;10253401;28;20069;-59
2022/05/17 23:41:27;;;;;;;14.68;11.18;;;;;;;14.69;100.00;97568.00;10251838;28;20487;-59
2022/05/17 23:46:29;;;;;;;15.25;11.80;;;;;;;14.72;100.00;97552.28;10234837;28;20073;-59
2022/05/17 23:51:28;;;;;;;17.50;11.52;;;;;;;14.69;100.00;97528.81;10251283;28;20065;-59
2022/05/17 23:56:27;;;;;;;16.98;12.48;;;;;;;14.43;100.00;97486.69;10251269;28;20533;-59
